sensor_id;sensor_type;location;lat;lon;timestamp;P1;durP1;ratioP1;P2;durP2;ratioP2
26502;SDS011;14177;51.520;6.764;2024-01-16T00:00:57;9.82;;;3.55;;
26502;SDS011;14177;51.520;6.764;2024-01-16T00:03:24;5.40;;;3.63;;
26502;SDS011;14177;51.520;6.764;2024-01-16T00:05:51;7.18;;;3.65;;
26502;SDS011;14177;51.520;6.764;2024-01-16T00:08:18;12.00;;;3.35;;
26502;SDS011;14177;51.520;6.764;2024-01-16T00:10:45;4.80;;;3.30;;
26502;SDS011;14177;51.520;6.764;2024-01-16T00:13:12;7.90;;;3.08;;
26502;SDS011;14177;51.520;6.764;2024-01-16T00:15:39;6.35;;;3.25;;
26502;SDS011;14177;51.520;6.764;2024-01-16T00:18:09;8.93;;;3.65;;
26502;SDS011;14177;51.520;6.764;2024-01-16T00:20:37;10.98;;;2.92;;
26502;SDS011;14177;51.520;6.764;2024-01-16T00:23:04;5.20;;;2.80;;
26502;SDS011;14177;51.520;6.764;2024-01-16T00:25:31;7.72;;;3.65;;
26502;SDS011;14177;51.520;6.764;2024-01-16T00:27:58;6.90;;;3.30;;
26502;SDS011;14177;51.520;6.764;2024-01-16T00:30:25;4.72;;;2.63;;
26502;SDS011;14177;51.520;6.764;2024-01-16T00:32:52;6.03;;;3.17;;
26502;SDS011;14177;51.520;6.764;2024-01-16T00:35:19;7.25;;;2.95;;
26502;SDS011;14177;51.520;6.764;2024-01-16T00:37:46;6.90;;;3.10;;
26502;SDS011;14177;51.520;6.764;2024-01-16T00:40:13;7.00;;;2.53;;
26502;SDS011;14177;51.520;6.764;2024-01-16T00:42:40;9.20;;;3.33;;
26502;SDS011;14177;51.520;6.764;2024-01-16T00:45:07;7.32;;;3.00;;
26502;SDS011;14177;51.520;6.764;2024-01-16T00:47:35;9.05;;;3.92;;
26502;SDS011;14177;51.520;6.764;2024-01-16T00:50:02;3.83;;;2.80;;
26502;SDS011;14177;51.520;6.764;2024-01-16T00:52:29;9.60;;;3.50;;
26502;SDS011;14177;51.520;6.764;2024-01-16T00:54:56;7.88;;;3.25;;
26502;SDS011;14177;51.520;6.764;2024-01-16T00:57:23;9.27;;;2.92;;
26502;SDS011;14177;51.520;6.764;2024-01-16T00:59:50;10.02;;;3.50;;
26502;SDS011;14177;51.520;6.764;2024-01-16T01:02:17;4.85;;;2.80;;
26502;SDS011;14177;51.520;6.764;2024-01-16T01:04:44;5.43;;;3.47;;
26502;SDS011;14177;51.520;6.764;2024-01-16T01:07:14;5.75;;;2.95;;
26502;SDS011;14177;51.520;6.764;2024-01-16T01:09:41;7.82;;;3.25;;
26502;SDS011;14177;51.520;6.764;2024-01-16T01:12:08;9.32;;;3.08;;
26502;SDS011;14177;51.520;6.764;2024-01-16T01:14:36;5.57;;;2.25;;
26502;SDS011;14177;51.520;6.764;2024-01-16T01:17:03;6.85;;;3.03;;
26502;SDS011;14177;51.520;6.764;2024-01-16T01:19:30;6.85;;;2.85;;
26502;SDS011;14177;51.520;6.764;2024-01-16T01:21:57;4.50;;;2.60;;
26502;SDS011;14177;51.520;6.764;2024-01-16T01:24:24;7.55;;;3.15;;
26502;SDS011;14177;51.520;6.764;2024-01-16T01:26:51;7.35;;;2.95;;
26502;SDS011;14177;51.520;6.764;2024-01-16T01:29:18;3.95;;;3.00;;
26502;SDS011;14177;51.520;6.764;2024-01-16T01:31:46;4.35;;;2.92;;
26502;SDS011;14177;51.520;6.764;2024-01-16T01:34:14;7.68;;;3.30;;
26502;SDS011;14177;51.520;6.764;2024-01-16T01:36:42;5.43;;;2.65;;
26502;SDS011;14177;51.520;6.764;2024-01-16T01:39:09;12.73;;;3.13;;
26502;SDS011;14177;51.520;6.764;2024-01-16T01:41:39;5.63;;;2.90;;
26502;SDS011;14177;51.520;6.764;2024-01-16T01:44:07;7.28;;;2.95;;
26502;SDS011;14177;51.520;6.764;2024-01-16T01:46:41;8.00;;;3.28;;
26502;SDS011;14177;51.520;6.764;2024-01-16T01:49:10;4.95;;;3.10;;
26502;SDS011;14177;51.520;6.764;2024-01-16T01:51:40;5.35;;;2.95;;
26502;SDS011;14177;51.520;6.764;2024-01-16T01:54:08;6.20;;;3.45;;
26502;SDS011;14177;51.520;6.764;2024-01-16T01:56:36;6.50;;;3.40;;
26502;SDS011;14177;51.520;6.764;2024-01-16T01:59:03;7.35;;;3.30;;
26502;SDS011;14177;51.520;6.764;2024-01-16T02:01:32;5.93;;;3.10;;
26502;SDS011;14177;51.520;6.764;2024-01-16T02:04:01;10.35;;;3.03;;
26502;SDS011;14177;51.520;6.764;2024-01-16T02:06:28;6.80;;;3.15;;
26502;SDS011;14177;51.520;6.764;2024-01-16T02:08:56;3.58;;;2.90;;
26502;SDS011;14177;51.520;6.764;2024-01-16T02:11:24;8.98;;;3.63;;
26502;SDS011;14177;51.520;6.764;2024-01-16T02:13:51;9.60;;;3.45;;
26502;SDS011;14177;51.520;6.764;2024-01-16T02:16:22;4.55;;;3.28;;
26502;SDS011;14177;51.520;6.764;2024-01-16T02:18:51;7.45;;;4.45;;
26502;SDS011;14177;51.520;6.764;2024-01-16T02:21:22;5.80;;;3.38;;
26502;SDS011;14177;51.520;6.764;2024-01-16T02:26:21;7.43;;;3.70;;
26502;SDS011;14177;51.520;6.764;2024-01-16T02:28:48;6.25;;;3.42;;
26502;SDS011;14177;51.520;6.764;2024-01-16T02:31:15;10.77;;;3.75;;
26502;SDS011;14177;51.520;6.764;2024-01-16T02:33:43;4.07;;;2.88;;
26502;SDS011;14177;51.520;6.764;2024-01-16T02:36:10;5.40;;;3.03;;
26502;SDS011;14177;51.520;6.764;2024-01-16T02:38:37;4.20;;;2.88;;
26502;SDS011;14177;51.520;6.764;2024-01-16T02:41:05;7.18;;;3.30;;
26502;SDS011;14177;51.520;6.764;2024-01-16T02:43:33;4.53;;;2.92;;
26502;SDS011;14177;51.520;6.764;2024-01-16T02:46:00;8.35;;;3.40;;
26502;SDS011;14177;51.520;6.764;2024-01-16T02:48:27;8.25;;;3.45;;
26502;SDS011;14177;51.520;6.764;2024-01-16T02:50:54;7.03;;;3.22;;
26502;SDS011;14177;51.520;6.764;2024-01-16T02:53:21;6.43;;;3.53;;
26502;SDS011;14177;51.520;6.764;2024-01-16T02:55:48;6.28;;;3.53;;
26502;SDS011;14177;51.520;6.764;2024-01-16T02:58:15;4.80;;;3.65;;
26502;SDS011;14177;51.520;6.764;2024-01-16T03:00:42;8.35;;;4.78;;
26502;SDS011;14177;51.520;6.764;2024-01-16T03:03:10;8.85;;;4.30;;
26502;SDS011;14177;51.520;6.764;2024-01-16T03:05:37;5.93;;;3.75;;
26502;SDS011;14177;51.520;6.764;2024-01-16T03:08:04;5.95;;;4.05;;
26502;SDS011;14177;51.520;6.764;2024-01-16T03:10:33;6.72;;;3.75;;
26502;SDS011;14177;51.520;6.764;2024-01-16T03:13:00;7.05;;;4.10;;
26502;SDS011;14177;51.520;6.764;2024-01-16T03:15:26;8.43;;;4.80;;
26502;SDS011;14177;51.520;6.764;2024-01-16T03:17:53;6.55;;;3.92;;
26502;SDS011;14177;51.520;6.764;2024-01-16T03:20:21;6.13;;;4.03;;
26502;SDS011;14177;51.520;6.764;2024-01-16T03:22:49;7.88;;;4.55;;
26502;SDS011;14177;51.520;6.764;2024-01-16T03:25:16;7.13;;;3.83;;
26502;SDS011;14177;51.520;6.764;2024-01-16T03:27:45;6.82;;;4.15;;
26502;SDS011;14177;51.520;6.764;2024-01-16T03:30:12;7.20;;;4.60;;
26502;SDS011;14177;51.520;6.764;2024-01-16T03:32:40;6.57;;;3.90;;
26502;SDS011;14177;51.520;6.764;2024-01-16T03:35:07;8.90;;;4.32;;
26502;SDS011;14177;51.520;6.764;2024-01-16T03:37:34;10.40;;;4.82;;
26502;SDS011;14177;51.520;6.764;2024-01-16T03:40:01;8.25;;;4.65;;
26502;SDS011;14177;51.520;6.764;2024-01-16T03:42:28;5.53;;;3.55;;
26502;SDS011;14177;51.520;6.764;2024-01-16T03:44:55;8.30;;;4.03;;
26502;SDS011;14177;51.520;6.764;2024-01-16T03:47:23;9.80;;;4.72;;
26502;SDS011;14177;51.520;6.764;2024-01-16T03:49:50;11.45;;;4.65;;
26502;SDS011;14177;51.520;6.764;2024-01-16T03:52:17;7.88;;;4.95;;
26502;SDS011;14177;51.520;6.764;2024-01-16T03:54:44;10.35;;;5.07;;
26502;SDS011;14177;51.520;6.764;2024-01-16T03:57:11;10.10;;;5.05;;
26502;SDS011;14177;51.520;6.764;2024-01-16T03:59:38;8.38;;;4.97;;
26502;SDS011;14177;51.520;6.764;2024-01-16T04:02:05;9.55;;;5.07;;
26502;SDS011;14177;51.520;6.764;2024-01-16T04:04:32;9.20;;;4.82;;
26502;SDS011;14177;51.520;6.764;2024-01-16T04:07:00;8.30;;;5.03;;
26502;SDS011;14177;51.520;6.764;2024-01-16T04:09:27;13.13;;;5.70;;
26502;SDS011;14177;51.520;6.764;2024-01-16T04:11:55;9.93;;;5.00;;
26502;SDS011;14177;51.520;6.764;2024-01-16T04:14:22;9.07;;;5.03;;
26502;SDS011;14177;51.520;6.764;2024-01-16T04:16:49;8.63;;;4.47;;
26502;SDS011;14177;51.520;6.764;2024-01-16T04:19:16;12.73;;;4.97;;
26502;SDS011;14177;51.520;6.764;2024-01-16T04:21:43;12.73;;;4.88;;
26502;SDS011;14177;51.520;6.764;2024-01-16T04:24:10;11.02;;;5.18;;
26502;SDS011;14177;51.520;6.764;2024-01-16T04:26:38;10.15;;;3.90;;
26502;SDS011;14177;51.520;6.764;2024-01-16T04:29:05;10.98;;;4.60;;
26502;SDS011;14177;51.520;6.764;2024-01-16T04:31:33;10.75;;;4.10;;
26502;SDS011;14177;51.520;6.764;2024-01-16T04:34:09;10.80;;;5.18;;
26502;SDS011;14177;51.520;6.764;2024-01-16T04:36:36;9.52;;;4.47;;
26502;SDS011;14177;51.520;6.764;2024-01-16T04:39:03;7.38;;;4.30;;
26502;SDS011;14177;51.520;6.764;2024-01-16T04:41:30;8.88;;;3.78;;
26502;SDS011;14177;51.520;6.764;2024-01-16T04:43:57;6.20;;;3.95;;
26502;SDS011;14177;51.520;6.764;2024-01-16T04:46:24;6.80;;;3.65;;
26502;SDS011;14177;51.520;6.764;2024-01-16T04:48:51;6.57;;;3.75;;
26502;SDS011;14177;51.520;6.764;2024-01-16T04:51:18;7.28;;;4.35;;
26502;SDS011;14177;51.520;6.764;2024-01-16T04:53:45;9.63;;;4.35;;
26502;SDS011;14177;51.520;6.764;2024-01-16T04:56:12;7.05;;;2.95;;
26502;SDS011;14177;51.520;6.764;2024-01-16T04:58:39;7.28;;;3.20;;
26502;SDS011;14177;51.520;6.764;2024-01-16T05:01:06;6.97;;;3.55;;
26502;SDS011;14177;51.520;6.764;2024-01-16T05:03:34;6.53;;;3.00;;
26502;SDS011;14177;51.520;6.764;2024-01-16T05:06:02;8.35;;;2.95;;
26502;SDS011;14177;51.520;6.764;2024-01-16T05:08:29;6.32;;;3.40;;
26502;SDS011;14177;51.520;6.764;2024-01-16T05:10:57;7.60;;;2.80;;
26502;SDS011;14177;51.520;6.764;2024-01-16T05:13:24;7.78;;;2.75;;
26502;SDS011;14177;51.520;6.764;2024-01-16T05:15:51;7.68;;;2.92;;
26502;SDS011;14177;51.520;6.764;2024-01-16T05:18:18;8.10;;;2.95;;
26502;SDS011;14177;51.520;6.764;2024-01-16T05:20:46;2.60;;;2.25;;
26502;SDS011;14177;51.520;6.764;2024-01-16T05:23:13;5.65;;;2.55;;
26502;SDS011;14177;51.520;6.764;2024-01-16T05:25:40;9.45;;;2.85;;
26502;SDS011;14177;51.520;6.764;2024-01-16T05:28:07;3.20;;;2.05;;
26502;SDS011;14177;51.520;6.764;2024-01-16T05:30:34;3.35;;;2.20;;
26502;SDS011;14177;51.520;6.764;2024-01-16T05:33:01;6.55;;;2.30;;
26502;SDS011;14177;51.520;6.764;2024-01-16T05:35:29;5.85;;;2.42;;
26502;SDS011;14177;51.520;6.764;2024-01-16T05:37:56;4.93;;;2.33;;
26502;SDS011;14177;51.520;6.764;2024-01-16T05:40:25;8.05;;;2.20;;
26502;SDS011;14177;51.520;6.764;2024-01-16T05:42:52;6.90;;;2.78;;
26502;SDS011;14177;51.520;6.764;2024-01-16T05:45:19;8.18;;;2.67;;
26502;SDS011;14177;51.520;6.764;2024-01-16T05:47:46;9.88;;;2.47;;
26502;SDS011;14177;51.520;6.764;2024-01-16T05:50:13;6.28;;;2.80;;
26502;SDS011;14177;51.520;6.764;2024-01-16T05:52:44;5.45;;;3.13;;
26502;SDS011;14177;51.520;6.764;2024-01-16T05:55:12;4.95;;;3.10;;
26502;SDS011;14177;51.520;6.764;2024-01-16T05:57:40;6.07;;;3.88;;
26502;SDS011;14177;51.520;6.764;2024-01-16T06:00:08;6.90;;;3.70;;
26502;SDS011;14177;51.520;6.764;2024-01-16T06:02:35;8.13;;;3.83;;
26502;SDS011;14177;51.520;6.764;2024-01-16T06:05:03;10.07;;;4.82;;
26502;SDS011;14177;51.520;6.764;2024-01-16T06:07:30;11.57;;;5.35;;
26502;SDS011;14177;51.520;6.764;2024-01-16T06:09:57;10.20;;;5.22;;
26502;SDS011;14177;51.520;6.764;2024-01-16T06:12:24;10.30;;;6.18;;
26502;SDS011;14177;51.520;6.764;2024-01-16T06:14:51;10.70;;;6.88;;
26502;SDS011;14177;51.520;6.764;2024-01-16T06:17:18;15.35;;;6.97;;
26502;SDS011;14177;51.520;6.764;2024-01-16T06:19:45;16.00;;;8.18;;
26502;SDS011;14177;51.520;6.764;2024-01-16T06:22:13;18.15;;;8.35;;
26502;SDS011;14177;51.520;6.764;2024-01-16T06:24:40;19.48;;;8.65;;
26502;SDS011;14177;51.520;6.764;2024-01-16T06:27:07;13.57;;;7.88;;
26502;SDS011;14177;51.520;6.764;2024-01-16T06:29:34;16.67;;;8.27;;
26502;SDS011;14177;51.520;6.764;2024-01-16T06:32:01;16.88;;;8.52;;
26502;SDS011;14177;51.520;6.764;2024-01-16T06:34:29;18.65;;;8.15;;
26502;SDS011;14177;51.520;6.764;2024-01-16T06:36:56;13.98;;;8.30;;
26502;SDS011;14177;51.520;6.764;2024-01-16T06:39:23;12.75;;;7.85;;
26502;SDS011;14177;51.520;6.764;2024-01-16T06:41:50;15.43;;;7.72;;
26502;SDS011;14177;51.520;6.764;2024-01-16T06:44:18;15.05;;;7.35;;
26502;SDS011;14177;51.520;6.764;2024-01-16T06:46:45;16.10;;;7.53;;
26502;SDS011;14177;51.520;6.764;2024-01-16T06:49:12;11.60;;;6.05;;
26502;SDS011;14177;51.520;6.764;2024-01-16T06:51:40;14.18;;;6.78;;
26502;SDS011;14177;51.520;6.764;2024-01-16T06:54:06;19.02;;;6.40;;
26502;SDS011;14177;51.520;6.764;2024-01-16T06:56:33;14.07;;;5.68;;
26502;SDS011;14177;51.520;6.764;2024-01-16T06:59:00;8.93;;;5.00;;
26502;SDS011;14177;51.520;6.764;2024-01-16T07:01:28;12.63;;;4.57;;
26502;SDS011;14177;51.520;6.764;2024-01-16T07:03:55;16.83;;;5.97;;
26502;SDS011;14177;51.520;6.764;2024-01-16T07:06:22;13.32;;;4.88;;
26502;SDS011;14177;51.520;6.764;2024-01-16T07:08:49;16.25;;;4.05;;
26502;SDS011;14177;51.520;6.764;2024-01-16T07:11:16;10.55;;;4.78;;
26502;SDS011;14177;51.520;6.764;2024-01-16T07:13:43;11.32;;;4.97;;
26502;SDS011;14177;51.520;6.764;2024-01-16T07:16:10;10.05;;;4.18;;
26502;SDS011;14177;51.520;6.764;2024-01-16T07:18:39;11.63;;;4.22;;
26502;SDS011;14177;51.520;6.764;2024-01-16T07:21:16;14.02;;;4.32;;
26502;SDS011;14177;51.520;6.764;2024-01-16T07:23:44;10.38;;;4.40;;
26502;SDS011;14177;51.520;6.764;2024-01-16T07:26:11;11.05;;;4.75;;
26502;SDS011;14177;51.520;6.764;2024-01-16T07:28:42;11.48;;;4.35;;
26502;SDS011;14177;51.520;6.764;2024-01-16T07:31:10;8.60;;;4.68;;
26502;SDS011;14177;51.520;6.764;2024-01-16T07:33:38;10.48;;;4.85;;
26502;SDS011;14177;51.520;6.764;2024-01-16T07:36:05;15.60;;;5.15;;
26502;SDS011;14177;51.520;6.764;2024-01-16T07:38:34;13.10;;;4.70;;
26502;SDS011;14177;51.520;6.764;2024-01-16T07:41:05;9.85;;;4.28;;
26502;SDS011;14177;51.520;6.764;2024-01-16T07:43:32;9.05;;;4.20;;
26502;SDS011;14177;51.520;6.764;2024-01-16T07:46:00;12.65;;;4.55;;
26502;SDS011;14177;51.520;6.764;2024-01-16T07:48:28;7.97;;;4.00;;
26502;SDS011;14177;51.520;6.764;2024-01-16T07:50:55;7.10;;;4.07;;
26502;SDS011;14177;51.520;6.764;2024-01-16T07:53:23;11.35;;;4.35;;
26502;SDS011;14177;51.520;6.764;2024-01-16T07:55:53;7.55;;;3.88;;
26502;SDS011;14177;51.520;6.764;2024-01-16T07:58:21;12.50;;;4.18;;
26502;SDS011;14177;51.520;6.764;2024-01-16T08:00:48;9.82;;;4.18;;
26502;SDS011;14177;51.520;6.764;2024-01-16T08:03:15;10.73;;;3.78;;
26502;SDS011;14177;51.520;6.764;2024-01-16T08:05:43;14.10;;;4.03;;
26502;SDS011;14177;51.520;6.764;2024-01-16T08:08:10;11.20;;;3.97;;
26502;SDS011;14177;51.520;6.764;2024-01-16T08:10:37;12.05;;;4.60;;
26502;SDS011;14177;51.520;6.764;2024-01-16T08:13:07;19.10;;;4.03;;
26502;SDS011;14177;51.520;6.764;2024-01-16T08:15:35;14.02;;;3.92;;
26502;SDS011;14177;51.520;6.764;2024-01-16T08:18:03;11.70;;;4.25;;
26502;SDS011;14177;51.520;6.764;2024-01-16T08:20:31;7.57;;;3.95;;
26502;SDS011;14177;51.520;6.764;2024-01-16T08:22:58;13.15;;;4.38;;
26502;SDS011;14177;51.520;6.764;2024-01-16T08:25:25;13.45;;;3.97;;
26502;SDS011;14177;51.520;6.764;2024-01-16T08:27:52;13.80;;;3.35;;
26502;SDS011;14177;51.520;6.764;2024-01-16T08:30:19;5.07;;;2.90;;
26502;SDS011;14177;51.520;6.764;2024-01-16T08:32:46;7.90;;;3.55;;
26502;SDS011;14177;51.520;6.764;2024-01-16T08:35:13;8.45;;;3.33;;
26502;SDS011;14177;51.520;6.764;2024-01-16T08:37:40;15.15;;;5.55;;
26502;SDS011;14177;51.520;6.764;2024-01-16T08:40:07;9.88;;;3.95;;
26502;SDS011;14177;51.520;6.764;2024-01-16T08:42:34;9.75;;;3.78;;
26502;SDS011;14177;51.520;6.764;2024-01-16T08:45:01;9.23;;;3.28;;
26502;SDS011;14177;51.520;6.764;2024-01-16T08:47:29;12.10;;;3.38;;
26502;SDS011;14177;51.520;6.764;2024-01-16T08:49:56;8.27;;;3.90;;
26502;SDS011;14177;51.520;6.764;2024-01-16T08:52:23;13.48;;;3.90;;
26502;SDS011;14177;51.520;6.764;2024-01-16T08:54:50;19.10;;;3.70;;
26502;SDS011;14177;51.520;6.764;2024-01-16T08:57:17;16.17;;;4.88;;
26502;SDS011;14177;51.520;6.764;2024-01-16T08:59:46;8.50;;;3.95;;
26502;SDS011;14177;51.520;6.764;2024-01-16T09:02:13;13.15;;;3.22;;
26502;SDS011;14177;51.520;6.764;2024-01-16T09:04:40;13.98;;;4.78;;
26502;SDS011;14177;51.520;6.764;2024-01-16T09:07:08;14.43;;;4.60;;
26502;SDS011;14177;51.520;6.764;2024-01-16T09:09:35;13.90;;;5.22;;
26502;SDS011;14177;51.520;6.764;2024-01-16T09:12:02;18.58;;;5.45;;
26502;SDS011;14177;51.520;6.764;2024-01-16T09:14:30;13.85;;;4.57;;
26502;SDS011;14177;51.520;6.764;2024-01-16T09:16:57;19.45;;;5.20;;
26502;SDS011;14177;51.520;6.764;2024-01-16T09:19:25;14.73;;;5.07;;
26502;SDS011;14177;51.520;6.764;2024-01-16T09:21:59;20.80;;;4.80;;
26502;SDS011;14177;51.520;6.764;2024-01-16T09:24:27;19.23;;;4.20;;
26502;SDS011;14177;51.520;6.764;2024-01-16T09:26:56;13.05;;;4.82;;
26502;SDS011;14177;51.520;6.764;2024-01-16T09:29:28;12.70;;;3.30;;
26502;SDS011;14177;51.520;6.764;2024-01-16T09:31:57;17.40;;;3.47;;
26502;SDS011;14177;51.520;6.764;2024-01-16T09:34:25;6.25;;;3.80;;
26502;SDS011;14177;51.520;6.764;2024-01-16T09:36:56;10.13;;;3.60;;
26502;SDS011;14177;51.520;6.764;2024-01-16T09:39:31;12.65;;;3.83;;
26502;SDS011;14177;51.520;6.764;2024-01-16T09:42:02;7.75;;;2.80;;
26502;SDS011;14177;51.520;6.764;2024-01-16T09:44:35;8.13;;;3.17;;
26502;SDS011;14177;51.520;6.764;2024-01-16T09:47:04;9.50;;;3.35;;
26502;SDS011;14177;51.520;6.764;2024-01-16T09:49:35;9.90;;;3.65;;
26502;SDS011;14177;51.520;6.764;2024-01-16T09:52:08;10.10;;;3.15;;
26502;SDS011;14177;51.520;6.764;2024-01-16T09:54:38;10.27;;;3.55;;
26502;SDS011;14177;51.520;6.764;2024-01-16T09:57:06;9.50;;;3.70;;
26502;SDS011;14177;51.520;6.764;2024-01-16T09:59:37;13.82;;;3.28;;
26502;SDS011;14177;51.520;6.764;2024-01-16T10:02:08;8.43;;;3.28;;
26502;SDS011;14177;51.520;6.764;2024-01-16T10:04:38;8.13;;;3.95;;
26502;SDS011;14177;51.520;6.764;2024-01-16T10:07:09;12.35;;;3.88;;
26502;SDS011;14177;51.520;6.764;2024-01-16T10:09:40;7.68;;;3.33;;
26502;SDS011;14177;51.520;6.764;2024-01-16T10:12:07;13.70;;;4.72;;
26502;SDS011;14177;51.520;6.764;2024-01-16T10:14:36;12.45;;;3.80;;
26502;SDS011;14177;51.520;6.764;2024-01-16T10:17:05;8.65;;;3.75;;
26502;SDS011;14177;51.520;6.764;2024-01-16T10:19:33;6.85;;;3.22;;
26502;SDS011;14177;51.520;6.764;2024-01-16T10:22:14;15.23;;;3.95;;
26502;SDS011;14177;51.520;6.764;2024-01-16T10:25:11;8.07;;;3.13;;
26502;SDS011;14177;51.520;6.764;2024-01-16T10:27:43;11.10;;;3.15;;
26502;SDS011;14177;51.520;6.764;2024-01-16T10:30:10;7.32;;;3.72;;
26502;SDS011;14177;51.520;6.764;2024-01-16T10:32:39;6.80;;;3.42;;
26502;SDS011;14177;51.520;6.764;2024-01-16T10:35:09;7.90;;;3.67;;
26502;SDS011;14177;51.520;6.764;2024-01-16T10:37:49;13.48;;;3.80;;
26502;SDS011;14177;51.520;6.764;2024-01-16T10:40:21;8.32;;;3.60;;
26502;SDS011;14177;51.520;6.764;2024-01-16T10:42:59;8.48;;;3.85;;
26502;SDS011;14177;51.520;6.764;2024-01-16T10:45:31;8.05;;;3.83;;
26502;SDS011;14177;51.520;6.764;2024-01-16T10:48:08;8.60;;;3.67;;
26502;SDS011;14177;51.520;6.764;2024-01-16T10:50:37;8.63;;;3.80;;
26502;SDS011;14177;51.520;6.764;2024-01-16T10:53:06;10.55;;;3.70;;
26502;SDS011;14177;51.520;6.764;2024-01-16T10:55:40;9.50;;;2.90;;
26502;SDS011;14177;51.520;6.764;2024-01-16T10:58:21;10.43;;;3.37;;
26502;SDS011;14177;51.520;6.764;2024-01-16T11:00:51;13.27;;;4.63;;
26502;SDS011;14177;51.520;6.764;2024-01-16T11:04:06;10.50;;;3.75;;
26502;SDS011;14177;51.520;6.764;2024-01-16T11:06:16;12.65;;;3.90;;
26502;SDS011;14177;51.520;6.764;2024-01-16T11:08:55;12.13;;;4.13;;
26502;SDS011;14177;51.520;6.764;2024-01-16T11:11:31;11.88;;;4.28;;
26502;SDS011;14177;51.520;6.764;2024-01-16T11:14:13;8.50;;;3.22;;
26502;SDS011;14177;51.520;6.764;2024-01-16T11:16:51;8.80;;;3.63;;
26502;SDS011;14177;51.520;6.764;2024-01-16T11:19:23;10.82;;;3.60;;
26502;SDS011;14177;51.520;6.764;2024-01-16T11:22:16;7.97;;;3.35;;
26502;SDS011;14177;51.520;6.764;2024-01-16T11:25:34;7.82;;;3.90;;
26502;SDS011;14177;51.520;6.764;2024-01-16T11:28:21;8.57;;;3.22;;
26502;SDS011;14177;51.520;6.764;2024-01-16T11:31:36;10.88;;;3.45;;
26502;SDS011;14177;51.520;6.764;2024-01-16T11:34:06;8.35;;;3.70;;
26502;SDS011;14177;51.520;6.764;2024-01-16T11:39:23;9.95;;;3.30;;
26502;SDS011;14177;51.520;6.764;2024-01-16T11:41:57;7.03;;;2.83;;
26502;SDS011;14177;51.520;6.764;2024-01-16T11:44:36;9.55;;;3.60;;
26502;SDS011;14177;51.520;6.764;2024-01-16T11:47:21;10.23;;;3.65;;
26502;SDS011;14177;51.520;6.764;2024-01-16T11:49:51;6.85;;;3.65;;
26502;SDS011;14177;51.520;6.764;2024-01-16T11:55:30;5.63;;;3.25;;
26502;SDS011;14177;51.520;6.764;2024-01-16T12:01:06;13.32;;;4.97;;
26502;SDS011;14177;51.520;6.764;2024-01-16T12:03:34;12.95;;;3.50;;
26502;SDS011;14177;51.520;6.764;2024-01-16T12:06:01;6.68;;;3.58;;
26502;SDS011;14177;51.520;6.764;2024-01-16T12:08:30;8.40;;;2.78;;
26502;SDS011;14177;51.520;6.764;2024-01-16T12:10:58;6.50;;;3.50;;
26502;SDS011;14177;51.520;6.764;2024-01-16T12:13:26;8.55;;;3.17;;
26502;SDS011;14177;51.520;6.764;2024-01-16T12:16:02;6.10;;;2.83;;
26502;SDS011;14177;51.520;6.764;2024-01-16T12:18:31;9.63;;;3.50;;
26502;SDS011;14177;51.520;6.764;2024-01-16T12:21:12;6.20;;;2.92;;
26502;SDS011;14177;51.520;6.764;2024-01-16T12:23:42;7.85;;;3.22;;
26502;SDS011;14177;51.520;6.764;2024-01-16T12:26:24;6.88;;;3.00;;
26502;SDS011;14177;51.520;6.764;2024-01-16T12:28:51;11.55;;;4.13;;
26502;SDS011;14177;51.520;6.764;2024-01-16T12:31:25;8.17;;;3.00;;
26502;SDS011;14177;51.520;6.764;2024-01-16T12:34:15;7.00;;;3.13;;
26502;SDS011;14177;51.520;6.764;2024-01-16T12:36:42;5.63;;;2.95;;
26502;SDS011;14177;51.520;6.764;2024-01-16T12:39:12;8.77;;;3.17;;
26502;SDS011;14177;51.520;6.764;2024-01-16T12:41:41;8.88;;;3.20;;
26502;SDS011;14177;51.520;6.764;2024-01-16T12:44:13;6.82;;;3.42;;
26502;SDS011;14177;51.520;6.764;2024-01-16T12:46:44;10.05;;;3.10;;
26502;SDS011;14177;51.520;6.764;2024-01-16T12:49:29;8.63;;;3.33;;
26502;SDS011;14177;51.520;6.764;2024-01-16T12:52:18;8.48;;;4.25;;
26502;SDS011;14177;51.520;6.764;2024-01-16T12:54:58;7.68;;;3.63;;
26502;SDS011;14177;51.520;6.764;2024-01-16T12:57:32;10.20;;;4.15;;
26502;SDS011;14177;51.520;6.764;2024-01-16T13:00:00;16.83;;;4.65;;
26502;SDS011;14177;51.520;6.764;2024-01-16T13:02:31;6.53;;;3.30;;
26502;SDS011;14177;51.520;6.764;2024-01-16T13:05:01;7.50;;;3.47;;
26502;SDS011;14177;51.520;6.764;2024-01-16T13:07:31;8.27;;;3.42;;
26502;SDS011;14177;51.520;6.764;2024-01-16T13:10:07;8.15;;;3.72;;
26502;SDS011;14177;51.520;6.764;2024-01-16T13:12:43;13.63;;;3.88;;
26502;SDS011;14177;51.520;6.764;2024-01-16T13:15:11;9.45;;;4.05;;
26502;SDS011;14177;51.520;6.764;2024-01-16T13:17:44;9.68;;;4.47;;
26502;SDS011;14177;51.520;6.764;2024-01-16T13:20:12;10.80;;;3.83;;
26502;SDS011;14177;51.520;6.764;2024-01-16T13:22:43;9.82;;;3.58;;
26502;SDS011;14177;51.520;6.764;2024-01-16T13:25:15;8.32;;;3.67;;
26502;SDS011;14177;51.520;6.764;2024-01-16T13:27:43;9.32;;;3.50;;
26502;SDS011;14177;51.520;6.764;2024-01-16T13:30:16;9.52;;;4.07;;
26502;SDS011;14177;51.520;6.764;2024-01-16T13:32:48;9.82;;;3.60;;
26502;SDS011;14177;51.520;6.764;2024-01-16T13:35:16;8.88;;;4.18;;
26502;SDS011;14177;51.520;6.764;2024-01-16T13:37:45;10.27;;;3.75;;
26502;SDS011;14177;51.520;6.764;2024-01-16T13:40:18;12.30;;;4.20;;
26502;SDS011;14177;51.520;6.764;2024-01-16T13:42:51;11.13;;;4.10;;
26502;SDS011;14177;51.520;6.764;2024-01-16T13:45:19;10.10;;;3.67;;
26502;SDS011;14177;51.520;6.764;2024-01-16T13:47:47;6.15;;;3.30;;
26502;SDS011;14177;51.520;6.764;2024-01-16T13:50:16;15.55;;;3.40;;
26502;SDS011;14177;51.520;6.764;2024-01-16T13:52:57;9.95;;;3.92;;
26502;SDS011;14177;51.520;6.764;2024-01-16T13:55:25;8.07;;;4.13;;
26502;SDS011;14177;51.520;6.764;2024-01-16T13:57:54;8.38;;;4.25;;
26502;SDS011;14177;51.520;6.764;2024-01-16T14:00:22;9.18;;;4.35;;
26502;SDS011;14177;51.520;6.764;2024-01-16T14:02:50;12.90;;;4.15;;
26502;SDS011;14177;51.520;6.764;2024-01-16T14:05:18;11.23;;;4.32;;
26502;SDS011;14177;51.520;6.764;2024-01-16T14:07:47;8.43;;;4.30;;
26502;SDS011;14177;51.520;6.764;2024-01-16T14:10:17;11.15;;;3.83;;
26502;SDS011;14177;51.520;6.764;2024-01-16T14:12:46;9.57;;;3.72;;
26502;SDS011;14177;51.520;6.764;2024-01-16T14:15:16;9.60;;;3.60;;
26502;SDS011;14177;51.520;6.764;2024-01-16T14:17:46;13.45;;;4.57;;
26502;SDS011;14177;51.520;6.764;2024-01-16T14:20:19;12.48;;;5.35;;
26502;SDS011;14177;51.520;6.764;2024-01-16T14:22:54;5.00;;;3.40;;
26502;SDS011;14177;51.520;6.764;2024-01-16T14:25:26;7.93;;;4.18;;
26502;SDS011;14177;51.520;6.764;2024-01-16T14:27:56;10.70;;;4.10;;
26502;SDS011;14177;51.520;6.764;2024-01-16T14:30:31;10.95;;;4.40;;
26502;SDS011;14177;51.520;6.764;2024-01-16T14:32:59;14.25;;;4.15;;
26502;SDS011;14177;51.520;6.764;2024-01-16T14:35:28;7.13;;;4.10;;
26502;SDS011;14177;51.520;6.764;2024-01-16T14:37:57;5.55;;;3.55;;
26502;SDS011;14177;51.520;6.764;2024-01-16T14:40:24;9.05;;;4.25;;
26502;SDS011;14177;51.520;6.764;2024-01-16T14:42:52;8.27;;;3.75;;
26502;SDS011;14177;51.520;6.764;2024-01-16T14:45:23;15.02;;;4.68;;
26502;SDS011;14177;51.520;6.764;2024-01-16T14:47:51;9.35;;;3.75;;
26502;SDS011;14177;51.520;6.764;2024-01-16T14:50:20;19.17;;;4.65;;
26502;SDS011;14177;51.520;6.764;2024-01-16T14:52:48;6.57;;;3.42;;
26502;SDS011;14177;51.520;6.764;2024-01-16T14:55:18;11.95;;;4.18;;
26502;SDS011;14177;51.520;6.764;2024-01-16T14:57:49;9.02;;;4.18;;
26502;SDS011;14177;51.520;6.764;2024-01-16T15:00:19;6.13;;;3.95;;
26502;SDS011;14177;51.520;6.764;2024-01-16T15:02:46;10.60;;;4.03;;
26502;SDS011;14177;51.520;6.764;2024-01-16T15:05:16;6.85;;;4.05;;
26502;SDS011;14177;51.520;6.764;2024-01-16T15:07:49;14.70;;;4.18;;